sensor_id;sensor_type;location;lat;lon;timestamp;P1;durP1;ratioP1;P2;durP2;ratioP2
67352;SDS011;54238;52.278;21.056;2024-03-23T00:54:36;37.20;;;20.50;;
67352;SDS011;54238;52.278;21.056;2024-03-23T00:57:22;36.00;;;21.90;;
67352;SDS011;54238;52.278;21.056;2024-03-23T01:00:09;35.50;;;20.20;;
67352;SDS011;54238;52.278;21.056;2024-03-23T01:03:01;35.20;;;21.50;;
67352;SDS011;54238;52.278;21.056;2024-03-23T01:05:50;40.00;;;21.30;;
67352;SDS011;54238;52.278;21.056;2024-03-23T01:08:40;31.10;;;20.90;;
67352;SDS011;54238;52.278;21.056;2024-03-23T01:11:27;33.40;;;21.50;;
67352;SDS011;54238;52.278;21.056;2024-03-23T01:14:13;32.90;;;20.30;;
67352;SDS011;54238;52.278;21.056;2024-03-23T01:17:03;37.70;;;21.60;;
67352;SDS011;54238;52.278;21.056;2024-03-23T01:19:50;31.80;;;20.50;;
67352;SDS011;54238;52.278;21.056;2024-03-23T01:22:41;35.30;;;22.20;;
67352;SDS011;54238;52.278;21.056;2024-03-23T01:25:28;34.00;;;21.40;;
67352;SDS011;54238;52.278;21.056;2024-03-23T01:28:15;35.30;;;23.00;;
67352;SDS011;54238;52.278;21.056;2024-03-23T01:31:04;40.20;;;22.90;;
67352;SDS011;54238;52.278;21.056;2024-03-23T01:33:53;28.50;;;19.10;;
67352;SDS011;54238;52.278;21.056;2024-03-23T01:36:40;35.20;;;19.80;;
67352;SDS011;54238;52.278;21.056;2024-03-23T01:39:27;33.80;;;21.30;;
67352;SDS011;54238;52.278;21.056;2024-03-23T01:42:16;28.90;;;18.20;;
67352;SDS011;54238;52.278;21.056;2024-03-23T01:45:09;34.90;;;21.10;;
67352;SDS011;54238;52.278;21.056;2024-03-23T01:47:59;34.80;;;22.10;;
67352;SDS011;54238;52.278;21.056;2024-03-23T01:50:46;39.10;;;22.10;;
67352;SDS011;54238;52.278;21.056;2024-03-23T01:53:35;36.80;;;22.80;;
67352;SDS011;54238;52.278;21.056;2024-03-23T01:56:24;34.60;;;22.20;;
67352;SDS011;54238;52.278;21.056;2024-03-23T01:59:11;39.40;;;24.60;;
67352;SDS011;54238;52.278;21.056;2024-03-23T02:01:59;39.20;;;25.20;;
67352;SDS011;54238;52.278;21.056;2024-03-23T02:04:48;31.80;;;20.20;;
67352;SDS011;54238;52.278;21.056;2024-03-23T02:07:35;37.50;;;23.50;;
67352;SDS011;54238;52.278;21.056;2024-03-23T02:10:24;35.00;;;23.60;;
67352;SDS011;54238;52.278;21.056;2024-03-23T02:13:17;33.80;;;22.00;;
67352;SDS011;54238;52.278;21.056;2024-03-23T02:16:05;32.30;;;21.70;;
67352;SDS011;54238;52.278;21.056;2024-03-23T02:18:52;35.40;;;22.90;;
67352;SDS011;54238;52.278;21.056;2024-03-23T02:21:41;36.40;;;22.70;;
67352;SDS011;54238;52.278;21.056;2024-03-23T02:24:29;39.70;;;24.30;;
67352;SDS011;54238;52.278;21.056;2024-03-23T02:27:20;32.20;;;21.50;;
67352;SDS011;54238;52.278;21.056;2024-03-23T02:30:07;35.50;;;22.10;;
67352;SDS011;54238;52.278;21.056;2024-03-23T02:32:54;35.70;;;21.50;;
67352;SDS011;54238;52.278;21.056;2024-03-23T02:35:45;34.10;;;22.60;;
67352;SDS011;54238;52.278;21.056;2024-03-23T02:38:37;40.40;;;22.80;;
67352;SDS011;54238;52.278;21.056;2024-03-23T02:41:24;37.10;;;24.20;;
67352;SDS011;54238;52.278;21.056;2024-03-23T02:44:11;37.20;;;22.50;;
67352;SDS011;54238;52.278;21.056;2024-03-23T02:47:00;38.30;;;23.00;;
67352;SDS011;54238;52.278;21.056;2024-03-23T02:49:47;34.90;;;21.50;;
67352;SDS011;54238;52.278;21.056;2024-03-23T02:52:33;37.40;;;20.50;;
67352;SDS011;54238;52.278;21.056;2024-03-23T02:55:22;34.40;;;21.20;;
67352;SDS011;54238;52.278;21.056;2024-03-23T02:58:09;37.00;;;23.50;;
67352;SDS011;54238;52.278;21.056;2024-03-23T03:00:58;37.30;;;24.60;;
67352;SDS011;54238;52.278;21.056;2024-03-23T03:03:49;38.30;;;24.60;;
67352;SDS011;54238;52.278;21.056;2024-03-23T03:06:36;35.20;;;23.50;;
67352;SDS011;54238;52.278;21.056;2024-03-23T03:09:28;34.90;;;22.60;;
67352;SDS011;54238;52.278;21.056;2024-03-23T03:12:14;33.40;;;22.00;;
67352;SDS011;54238;52.278;21.056;2024-03-23T03:15:07;35.20;;;23.00;;
67352;SDS011;54238;52.278;21.056;2024-03-23T03:17:57;41.60;;;24.80;;
67352;SDS011;54238;52.278;21.056;2024-03-23T03:20:43;43.10;;;25.00;;
67352;SDS011;54238;52.278;21.056;2024-03-23T03:23:30;35.40;;;23.70;;
67352;SDS011;54238;52.278;21.056;2024-03-23T03:26:19;32.60;;;21.90;;
67352;SDS011;54238;52.278;21.056;2024-03-23T03:29:06;35.10;;;21.40;;
67352;SDS011;54238;52.278;21.056;2024-03-23T03:31:53;42.90;;;25.50;;
67352;SDS011;54238;52.278;21.056;2024-03-23T03:34:46;36.70;;;22.60;;
67352;SDS011;54238;52.278;21.056;2024-03-23T03:37:33;34.80;;;22.90;;
67352;SDS011;54238;52.278;21.056;2024-03-23T03:40:23;35.20;;;22.90;;
67352;SDS011;54238;52.278;21.056;2024-03-23T03:43:10;26.50;;;18.10;;
67352;SDS011;54238;52.278;21.056;2024-03-23T03:46:00;30.60;;;20.50;;
67352;SDS011;54238;52.278;21.056;2024-03-23T03:48:51;29.90;;;21.90;;
67352;SDS011;54238;52.278;21.056;2024-03-23T03:51:43;29.40;;;19.30;;
67352;SDS011;54238;52.278;21.056;2024-03-23T03:54:30;32.00;;;22.00;;
67352;SDS011;54238;52.278;21.056;2024-03-23T03:57:16;32.40;;;21.80;;
67352;SDS011;54238;52.278;21.056;2024-03-23T04:00:03;32.30;;;21.60;;
67352;SDS011;54238;52.278;21.056;2024-03-23T04:02:57;30.40;;;20.80;;
67352;SDS011;54238;52.278;21.056;2024-03-23T04:05:51;30.70;;;19.50;;
67352;SDS011;54238;52.278;21.056;2024-03-23T04:11:30;30.80;;;21.20;;
67352;SDS011;54238;52.278;21.056;2024-03-23T04:14:19;27.60;;;18.70;;
67352;SDS011;54238;52.278;21.056;2024-03-23T04:17:06;25.90;;;17.60;;
67352;SDS011;54238;52.278;21.056;2024-03-23T04:19:55;32.40;;;19.50;;
67352;SDS011;54238;52.278;21.056;2024-03-23T04:22:45;27.60;;;18.90;;
67352;SDS011;54238;52.278;21.056;2024-03-23T04:25:39;32.10;;;21.50;;
67352;SDS011;54238;52.278;21.056;2024-03-23T04:28:28;27.60;;;18.40;;
67352;SDS011;54238;52.278;21.056;2024-03-23T04:31:17;32.80;;;21.80;;
67352;SDS011;54238;52.278;21.056;2024-03-23T04:34:04;23.60;;;15.40;;
67352;SDS011;54238;52.278;21.056;2024-03-23T04:36:54;29.40;;;20.70;;
67352;SDS011;54238;52.278;21.056;2024-03-23T04:39:40;28.20;;;19.50;;
67352;SDS011;54238;52.278;21.056;2024-03-23T04:42:27;27.50;;;19.80;;
67352;SDS011;54238;52.278;21.056;2024-03-23T04:45:14;31.40;;;21.30;;
67352;SDS011;54238;52.278;21.056;2024-03-23T04:48:06;32.20;;;20.60;;
67352;SDS011;54238;52.278;21.056;2024-03-23T04:50:57;30.80;;;20.90;;
67352;SDS011;54238;52.278;21.056;2024-03-23T04:53:44;32.90;;;20.90;;
67352;SDS011;54238;52.278;21.056;2024-03-23T04:56:31;25.00;;;16.10;;
67352;SDS011;54238;52.278;21.056;2024-03-23T04:59:20;31.40;;;19.80;;
67352;SDS011;54238;52.278;21.056;2024-03-23T05:02:09;25.80;;;17.90;;
67352;SDS011;54238;52.278;21.056;2024-03-23T05:04:55;24.70;;;17.50;;
67352;SDS011;54238;52.278;21.056;2024-03-23T05:07:46;29.10;;;20.70;;
67352;SDS011;54238;52.278;21.056;2024-03-23T05:10:35;26.70;;;18.80;;
67352;SDS011;54238;52.278;21.056;2024-03-23T05:13:24;30.90;;;21.50;;
67352;SDS011;54238;52.278;21.056;2024-03-23T05:16:14;27.50;;;18.00;;
67352;SDS011;54238;52.278;21.056;2024-03-23T05:19:00;27.40;;;20.00;;
67352;SDS011;54238;52.278;21.056;2024-03-23T05:21:47;29.50;;;20.90;;
67352;SDS011;54238;52.278;21.056;2024-03-23T05:24:36;30.10;;;21.00;;
67352;SDS011;54238;52.278;21.056;2024-03-23T05:27:23;30.10;;;22.00;;
67352;SDS011;54238;52.278;21.056;2024-03-23T05:30:10;36.20;;;23.70;;
67352;SDS011;54238;52.278;21.056;2024-03-23T05:32:57;36.80;;;24.30;;
67352;SDS011;54238;52.278;21.056;2024-03-23T05:35:44;33.40;;;21.90;;
67352;SDS011;54238;52.278;21.056;2024-03-23T05:38:31;35.10;;;24.40;;
67352;SDS011;54238;52.278;21.056;2024-03-23T05:41:17;33.10;;;22.80;;
67352;SDS011;54238;52.278;21.056;2024-03-23T05:44:04;38.30;;;27.20;;
67352;SDS011;54238;52.278;21.056;2024-03-23T05:46:53;36.60;;;23.80;;
67352;SDS011;54238;52.278;21.056;2024-03-23T05:49:40;42.50;;;29.30;;
67352;SDS011;54238;52.278;21.056;2024-03-23T05:52:31;37.00;;;24.70;;
67352;SDS011;54238;52.278;21.056;2024-03-23T05:55:18;41.50;;;27.70;;
67352;SDS011;54238;52.278;21.056;2024-03-23T05:58:10;37.20;;;25.50;;
67352;SDS011;54238;52.278;21.056;2024-03-23T06:00:58;48.10;;;27.10;;
67352;SDS011;54238;52.278;21.056;2024-03-23T06:03:46;40.80;;;26.70;;
67352;SDS011;54238;52.278;21.056;2024-03-23T06:06:33;45.10;;;28.30;;
67352;SDS011;54238;52.278;21.056;2024-03-23T06:09:19;42.60;;;27.80;;
67352;SDS011;54238;52.278;21.056;2024-03-23T06:12:09;47.20;;;29.70;;
67352;SDS011;54238;52.278;21.056;2024-03-23T06:14:57;41.60;;;28.20;;
67352;SDS011;54238;52.278;21.056;2024-03-23T06:17:49;43.90;;;28.00;;
67352;SDS011;54238;52.278;21.056;2024-03-23T06:20:38;47.10;;;28.10;;
67352;SDS011;54238;52.278;21.056;2024-03-23T06:23:25;36.90;;;26.20;;
67352;SDS011;54238;52.278;21.056;2024-03-23T06:26:15;44.30;;;26.90;;
67352;SDS011;54238;52.278;21.056;2024-03-23T06:29:06;36.10;;;22.90;;
67352;SDS011;54238;52.278;21.056;2024-03-23T06:31:58;43.70;;;27.90;;
67352;SDS011;54238;52.278;21.056;2024-03-23T06:34:44;39.00;;;25.50;;
67352;SDS011;54238;52.278;21.056;2024-03-23T06:37:35;43.30;;;28.80;;
67352;SDS011;54238;52.278;21.056;2024-03-23T06:40:22;49.30;;;29.10;;
67352;SDS011;54238;52.278;21.056;2024-03-23T06:43:08;42.00;;;26.10;;
67352;SDS011;54238;52.278;21.056;2024-03-23T06:45:56;41.90;;;26.20;;
67352;SDS011;54238;52.278;21.056;2024-03-23T06:48:47;36.40;;;24.20;;
67352;SDS011;54238;52.278;21.056;2024-03-23T06:51:37;38.10;;;24.80;;
67352;SDS011;54238;52.278;21.056;2024-03-23T06:54:24;38.10;;;25.90;;
67352;SDS011;54238;52.278;21.056;2024-03-23T06:57:12;41.20;;;25.40;;
67352;SDS011;54238;52.278;21.056;2024-03-23T07:00:05;36.90;;;24.60;;
67352;SDS011;54238;52.278;21.056;2024-03-23T07:02:56;39.30;;;26.70;;
67352;SDS011;54238;52.278;21.056;2024-03-23T07:05:47;43.40;;;27.70;;
67352;SDS011;54238;52.278;21.056;2024-03-23T07:08:36;44.20;;;25.80;;
67352;SDS011;54238;52.278;21.056;2024-03-23T07:11:23;36.00;;;22.30;;
67352;SDS011;54238;52.278;21.056;2024-03-23T07:14:10;41.30;;;25.30;;
67352;SDS011;54238;52.278;21.056;2024-03-23T07:16:59;37.10;;;23.90;;
67352;SDS011;54238;52.278;21.056;2024-03-23T07:19:46;42.40;;;25.30;;
67352;SDS011;54238;52.278;21.056;2024-03-23T07:22:37;36.30;;;24.00;;
67352;SDS011;54238;52.278;21.056;2024-03-23T07:25:24;36.20;;;22.30;;
67352;SDS011;54238;52.278;21.056;2024-03-23T07:28:15;35.40;;;23.00;;
67352;SDS011;54238;52.278;21.056;2024-03-23T07:31:05;36.70;;;22.40;;
67352;SDS011;54238;52.278;21.056;2024-03-23T07:33:56;35.30;;;21.20;;
67352;SDS011;54238;52.278;21.056;2024-03-23T07:36:43;45.50;;;23.50;;
67352;SDS011;54238;52.278;21.056;2024-03-23T07:39:32;37.30;;;23.00;;
67352;SDS011;54238;52.278;21.056;2024-03-23T07:42:21;39.80;;;24.00;;
67352;SDS011;54238;52.278;21.056;2024-03-23T07:45:12;31.70;;;21.30;;
67352;SDS011;54238;52.278;21.056;2024-03-23T07:47:59;33.40;;;21.10;;
67352;SDS011;54238;52.278;21.056;2024-03-23T07:50:46;31.30;;;20.80;;
67352;SDS011;54238;52.278;21.056;2024-03-23T07:53:33;35.80;;;20.70;;
67352;SDS011;54238;52.278;21.056;2024-03-23T07:56:20;31.40;;;21.30;;
67352;SDS011;54238;52.278;21.056;2024-03-23T07:59:12;27.50;;;19.20;;
67352;SDS011;54238;52.278;21.056;2024-03-23T08:02:00;27.90;;;17.90;;
67352;SDS011;54238;52.278;21.056;2024-03-23T08:04:47;31.40;;;18.90;;
67352;SDS011;54238;52.278;21.056;2024-03-23T08:07:33;26.30;;;18.00;;
67352;SDS011;54238;52.278;21.056;2024-03-23T08:10:20;30.70;;;20.40;;
67352;SDS011;54238;52.278;21.056;2024-03-23T08:13:06;30.10;;;19.70;;
67352;SDS011;54238;52.278;21.056;2024-03-23T08:15:56;30.10;;;19.10;;
67352;SDS011;54238;52.278;21.056;2024-03-23T08:18:52;31.50;;;20.80;;
67352;SDS011;54238;52.278;21.056;2024-03-23T08:21:42;39.00;;;21.50;;
67352;SDS011;54238;52.278;21.056;2024-03-23T08:24:31;29.90;;;18.90;;
67352;SDS011;54238;52.278;21.056;2024-03-23T08:27:20;34.50;;;21.20;;
67352;SDS011;54238;52.278;21.056;2024-03-23T08:30:07;28.50;;;18.90;;
67352;SDS011;54238;52.278;21.056;2024-03-23T08:32:54;34.60;;;20.40;;
67352;SDS011;54238;52.278;21.056;2024-03-23T08:35:41;29.90;;;18.00;;
67352;SDS011;54238;52.278;21.056;2024-03-23T08:38:29;33.90;;;20.90;;
67352;SDS011;54238;52.278;21.056;2024-03-23T08:41:15;39.70;;;21.70;;
67352;SDS011;54238;52.278;21.056;2024-03-23T08:44:04;29.80;;;20.30;;
67352;SDS011;54238;52.278;21.056;2024-03-23T08:46:55;28.80;;;18.30;;
67352;SDS011;54238;52.278;21.056;2024-03-23T08:49:44;32.50;;;21.70;;
67352;SDS011;54238;52.278;21.056;2024-03-23T08:52:31;32.30;;;19.90;;
67352;SDS011;54238;52.278;21.056;2024-03-23T08:55:20;31.70;;;20.20;;
67352;SDS011;54238;52.278;21.056;2024-03-23T08:58:10;32.40;;;19.30;;
67352;SDS011;54238;52.278;21.056;2024-03-23T09:01:03;30.80;;;19.60;;
67352;SDS011;54238;52.278;21.056;2024-03-23T09:03:51;28.30;;;18.30;;
67352;SDS011;54238;52.278;21.056;2024-03-23T09:06:42;29.20;;;19.10;;
67352;SDS011;54238;52.278;21.056;2024-03-23T09:09:29;27.30;;;17.80;;
67352;SDS011;54238;52.278;21.056;2024-03-23T09:12:22;28.70;;;17.80;;
67352;SDS011;54238;52.278;21.056;2024-03-23T09:15:12;27.50;;;18.50;;
67352;SDS011;54238;52.278;21.056;2024-03-23T09:17:59;30.60;;;17.90;;
67352;SDS011;54238;52.278;21.056;2024-03-23T09:20:48;22.80;;;16.20;;
67352;SDS011;54238;52.278;21.056;2024-03-23T09:23:37;24.50;;;16.90;;
67352;SDS011;54238;52.278;21.056;2024-03-23T09:26:28;24.70;;;17.00;;
67352;SDS011;54238;52.278;21.056;2024-03-23T09:29:16;25.80;;;15.80;;
67352;SDS011;54238;52.278;21.056;2024-03-23T09:32:03;28.10;;;16.40;;
67352;SDS011;54238;52.278;21.056;2024-03-23T09:34:52;24.60;;;15.60;;
67352;SDS011;54238;52.278;21.056;2024-03-23T09:37:41;24.70;;;15.60;;
67352;SDS011;54238;52.278;21.056;2024-03-23T09:40:30;24.90;;;15.40;;
67352;SDS011;54238;52.278;21.056;2024-03-23T09:43:20;22.50;;;15.30;;
67352;SDS011;54238;52.278;21.056;2024-03-23T09:46:07;22.40;;;14.90;;
67352;SDS011;54238;52.278;21.056;2024-03-23T09:48:59;21.00;;;14.20;;
67352;SDS011;54238;52.278;21.056;2024-03-23T09:51:51;19.50;;;14.30;;
67352;SDS011;54238;52.278;21.056;2024-03-23T09:54:42;19.20;;;13.70;;
67352;SDS011;54238;52.278;21.056;2024-03-23T09:57:29;24.10;;;14.40;;
67352;SDS011;54238;52.278;21.056;2024-03-23T10:00:15;20.30;;;14.10;;
67352;SDS011;54238;52.278;21.056;2024-03-23T10:03:05;20.50;;;13.30;;
67352;SDS011;54238;52.278;21.056;2024-03-23T10:06:00;23.10;;;13.20;;
67352;SDS011;54238;52.278;21.056;2024-03-23T10:08:53;19.70;;;14.20;;
67352;SDS011;54238;52.278;21.056;2024-03-23T10:11:42;18.30;;;12.40;;
67352;SDS011;54238;52.278;21.056;2024-03-23T10:14:36;23.70;;;13.50;;
67352;SDS011;54238;52.278;21.056;2024-03-23T10:17:23;25.90;;;17.30;;
67352;SDS011;54238;52.278;21.056;2024-03-23T10:20:12;16.60;;;12.40;;
67352;SDS011;54238;52.278;21.056;2024-03-23T10:23:18;16.80;;;11.90;;
67352;SDS011;54238;52.278;21.056;2024-03-23T10:26:25;18.70;;;12.90;;
67352;SDS011;54238;52.278;21.056;2024-03-23T10:29:17;17.50;;;12.00;;
67352;SDS011;54238;52.278;21.056;2024-03-23T10:32:15;16.30;;;12.30;;
67352;SDS011;54238;52.278;21.056;2024-03-23T10:35:15;17.80;;;11.80;;
67352;SDS011;54238;52.278;21.056;2024-03-23T10:38:06;15.70;;;12.00;;
67352;SDS011;54238;52.278;21.056;2024-03-23T10:40:55;15.60;;;12.10;;
67352;SDS011;54238;52.278;21.056;2024-03-23T10:43:45;15.50;;;11.40;;
67352;SDS011;54238;52.278;21.056;2024-03-23T10:46:35;16.90;;;11.70;;
67352;SDS011;54238;52.278;21.056;2024-03-23T10:49:26;16.30;;;11.90;;
67352;SDS011;54238;52.278;21.056;2024-03-23T10:52:16;18.50;;;12.60;;
67352;SDS011;54238;52.278;21.056;2024-03-23T10:55:06;13.10;;;10.30;;
67352;SDS011;54238;52.278;21.056;2024-03-23T10:57:59;15.20;;;11.00;;
67352;SDS011;54238;52.278;21.056;2024-03-23T11:00:50;17.00;;;10.90;;
67352;SDS011;54238;52.278;21.056;2024-03-23T11:03:45;16.70;;;11.30;;
67352;SDS011;54238;52.278;21.056;2024-03-23T11:06:39;15.10;;;11.10;;
67352;SDS011;54238;52.278;21.056;2024-03-23T11:12:27;13.80;;;10.70;;
67352;SDS011;54238;52.278;21.056;2024-03-23T11:15:18;13.70;;;10.10;;
67352;SDS011;54238;52.278;21.056;2024-03-23T11:18:09;15.90;;;10.60;;
67352;SDS011;54238;52.278;21.056;2024-03-23T11:20:56;13.50;;;10.20;;
67352;SDS011;54238;52.278;21.056;2024-03-23T11:23:45;11.80;;;10.00;;
67352;SDS011;54238;52.278;21.056;2024-03-23T11:26:35;12.00;;;8.90;;
67352;SDS011;54238;52.278;21.056;2024-03-23T11:32:16;11.80;;;9.60;;
67352;SDS011;54238;52.278;21.056;2024-03-23T11:35:06;13.80;;;9.60;;
67352;SDS011;54238;52.278;21.056;2024-03-23T11:40:52;11.40;;;8.70;;
67352;SDS011;54238;52.278;21.056;2024-03-23T11:43:41;12.60;;;9.20;;
67352;SDS011;54238;52.278;21.056;2024-03-23T11:46:28;13.10;;;9.20;;
67352;SDS011;54238;52.278;21.056;2024-03-23T11:49:25;14.50;;;9.60;;
67352;SDS011;54238;52.278;21.056;2024-03-23T11:52:13;10.40;;;8.90;;
67352;SDS011;54238;52.278;21.056;2024-03-23T11:55:05;12.10;;;9.40;;
67352;SDS011;54238;52.278;21.056;2024-03-23T11:57:54;13.50;;;8.50;;
67352;SDS011;54238;52.278;21.056;2024-03-23T12:00:48;10.90;;;8.50;;
67352;SDS011;54238;52.278;21.056;2024-03-23T12:03:44;13.80;;;8.40;;
67352;SDS011;54238;52.278;21.056;2024-03-23T12:06:31;14.00;;;7.40;;
67352;SDS011;54238;52.278;21.056;2024-03-23T12:09:17;10.30;;;8.10;;
67352;SDS011;54238;52.278;21.056;2024-03-23T12:12:24;12.20;;;8.20;;
67352;SDS011;54238;52.278;21.056;2024-03-23T12:15:14;12.80;;;7.10;;
67352;SDS011;54238;52.278;21.056;2024-03-23T12:18:08;11.30;;;7.80;;
67352;SDS011;54238;52.278;21.056;2024-03-23T12:20:56;10.00;;;7.60;;
67352;SDS011;54238;52.278;21.056;2024-03-23T12:23:45;10.30;;;6.70;;
67352;SDS011;54238;52.278;21.056;2024-03-23T12:26:36;9.60;;;6.70;;
67352;SDS011;54238;52.278;21.056;2024-03-23T12:29:27;9.70;;;6.80;;
67352;SDS011;54238;52.278;21.056;2024-03-23T12:32:15;10.70;;;7.10;;
67352;SDS011;54238;52.278;21.056;2024-03-23T12:35:02;12.00;;;7.00;;
67352;SDS011;54238;52.278;21.056;2024-03-23T12:37:49;11.80;;;6.00;;
67352;SDS011;54238;52.278;21.056;2024-03-23T12:40:41;9.30;;;7.10;;
67352;SDS011;54238;52.278;21.056;2024-03-23T12:43:27;10.90;;;7.20;;
67352;SDS011;54238;52.278;21.056;2024-03-23T12:46:15;12.10;;;7.20;;
67352;SDS011;54238;52.278;21.056;2024-03-23T12:49:04;11.20;;;7.90;;
67352;SDS011;54238;52.278;21.056;2024-03-23T12:51:54;11.10;;;7.10;;
67352;SDS011;54238;52.278;21.056;2024-03-23T12:54:42;8.60;;;6.80;;
67352;SDS011;54238;52.278;21.056;2024-03-23T12:57:29;8.20;;;6.70;;
67352;SDS011;54238;52.278;21.056;2024-03-23T13:00:16;11.30;;;7.10;;
67352;SDS011;54238;52.278;21.056;2024-03-23T13:03:03;10.60;;;8.20;;
67352;SDS011;54238;52.278;21.056;2024-03-23T13:05:54;16.20;;;7.30;;
67352;SDS011;54238;52.278;21.056;2024-03-23T13:08:45;11.60;;;7.90;;
67352;SDS011;54238;52.278;21.056;2024-03-23T13:11:39;12.20;;;8.20;;
67352;SDS011;54238;52.278;21.056;2024-03-23T13:14:30;15.00;;;8.50;;
67352;SDS011;54238;52.278;21.056;2024-03-23T13:17:21;12.20;;;8.20;;
67352;SDS011;54238;52.278;21.056;2024-03-23T13:20:08;16.30;;;8.20;;
67352;SDS011;54238;52.278;21.056;2024-03-23T13:23:02;11.60;;;7.90;;
67352;SDS011;54238;52.278;21.056;2024-03-23T13:25:52;14.00;;;8.10;;
67352;SDS011;54238;52.278;21.056;2024-03-23T13:28:43;12.90;;;8.20;;
67352;SDS011;54238;52.278;21.056;2024-03-23T13:31:32;12.20;;;8.10;;
67352;SDS011;54238;52.278;21.056;2024-03-23T13:34:23;10.40;;;8.10;;
67352;SDS011;54238;52.278;21.056;2024-03-23T13:37:10;14.80;;;8.40;;
67352;SDS011;54238;52.278;21.056;2024-03-23T13:39:56;12.30;;;8.30;;
67352;SDS011;54238;52.278;21.056;2024-03-23T13:42:45;13.40;;;8.80;;
67352;SDS011;54238;52.278;21.056;2024-03-23T13:45:32;15.50;;;8.10;;
67352;SDS011;54238;52.278;21.056;2024-03-23T13:48:24;14.60;;;8.60;;
67352;SDS011;54238;52.278;21.056;2024-03-23T13:51:12;19.80;;;9.00;;
67352;SDS011;54238;52.278;21.056;2024-03-23T13:54:01;10.60;;;7.70;;
67352;SDS011;54238;52.278;21.056;2024-03-23T13:56:51;12.00;;;7.80;;
67352;SDS011;54238;52.278;21.056;2024-03-23T13:59:41;13.20;;;8.80;;
67352;SDS011;54238;52.278;21.056;2024-03-23T14:02:28;13.70;;;8.10;;
67352;SDS011;54238;52.278;21.056;2024-03-23T14:05:19;13.20;;;8.50;;
67352;SDS011;54238;52.278;21.056;2024-03-23T14:08:11;11.00;;;8.00;;
67352;SDS011;54238;52.278;21.056;2024-03-23T14:10:58;11.40;;;8.00;;
67352;SDS011;54238;52.278;21.056;2024-03-23T14:13:45;13.50;;;8.00;;
67352;SDS011;54238;52.278;21.056;2024-03-23T14:16:31;12.30;;;8.30;;
67352;SDS011;54238;52.278;21.056;2024-03-23T14:19:20;17.40;;;8.90;;
67352;SDS011;54238;52.278;21.056;2024-03-23T14:22:12;17.70;;;8.60;;
67352;SDS011;54238;52.278;21.056;2024-03-23T14:25:03;13.70;;;7.50;;
67352;SDS011;54238;52.278;21.056;2024-03-23T14:27:52;14.80;;;7.70;;
67352;SDS011;54238;52.278;21.056;2024-03-23T14:30:41;11.80;;;7.70;;
67352;SDS011;54238;52.278;21.056;2024-03-23T14:33:28;11.40;;;8.10;;
67352;SDS011;54238;52.278;21.056;2024-03-23T14:36:17;13.70;;;8.40;;
67352;SDS011;54238;52.278;21.056;2024-03-23T14:39:05;15.10;;;8.20;;
67352;SDS011;54238;52.278;21.056;2024-03-23T14:41:54;15.70;;;8.50;;
67352;SDS011;54238;52.278;21.056;2024-03-23T14:44:43;12.40;;;6.90;;
67352;SDS011;54238;52.278;21.056;2024-03-23T14:47:35;10.60;;;7.60;;
67352;SDS011;54238;52.278;21.056;2024-03-23T14:50:24;13.50;;;7.80;;
67352;SDS011;54238;52.278;21.056;2024-03-23T14:53:13;11.20;;;7.10;;
67352;SDS011;54238;52.278;21.056;2024-03-23T14:56:03;9.50;;;7.60;;
67352;SDS011;54238;52.278;21.056;2024-03-23T14:58:53;14.10;;;7.80;;
67352;SDS011;54238;52.278;21.056;2024-03-23T15:01:42;12.40;;;8.30;;
67352;SDS011;54238;52.278;21.056;2024-03-23T15:04:31;12.20;;;7.30;;
67352;SDS011;54238;52.278;21.056;2024-03-23T15:07:18;13.70;;;7.40;;
67352;SDS011;54238;52.278;21.056;2024-03-23T15:10:08;12.10;;;8.20;;
67352;SDS011;54238;52.278;21.056;2024-03-23T15:12:56;17.20;;;9.70;;
67352;SDS011;54238;52.278;21.056;2024-03-23T15:15:45;15.30;;;8.40;;
67352;SDS011;54238;52.278;21.056;2024-03-23T15:18:37;14.30;;;10.10;;
67352;SDS011;54238;52.278;21.056;2024-03-23T15:21:29;16.20;;;9.80;;
67352;SDS011;54238;52.278;21.056;2024-03-23T15:24:18;18.30;;;11.70;;
67352;SDS011;54238;52.278;21.056;2024-03-23T15:27:09;17.10;;;11.30;;
67352;SDS011;54238;52.278;21.056;2024-03-23T15:29:56;20.70;;;13.30;;
67352;SDS011;54238;52.278;21.056;2024-03-23T15:32:44;18.40;;;14.00;;
67352;SDS011;54238;52.278;21.056;2024-03-23T15:35:30;22.10;;;13.90;;
67352;SDS011;54238;52.278;21.056;2024-03-23T15:38:20;21.30;;;11.50;;
67352;SDS011;54238;52.278;21.056;2024-03-23T15:41:07;15.50;;;10.90;;
67352;SDS011;54238;52.278;21.056;2024-03-23T15:43:54;12.90;;;9.40;;
67352;SDS011;54238;52.278;21.056;2024-03-23T15:46:44;13.10;;;9.30;;
67352;SDS011;54238;52.278;21.056;2024-03-23T15:49:30;13.00;;;9.70;;
67352;SDS011;54238;52.278;21.056;2024-03-23T15:52:17;15.80;;;9.30;;
67352;SDS011;54238;52.278;21.056;2024-03-23T15:55:09;18.60;;;9.60;;
67352;SDS011;54238;52.278;21.056;2024-03-23T15:57:58;16.30;;;10.00;;
67352;SDS011;54238;52.278;21.056;2024-03-23T16:00:50;19.50;;;8.30;;
67352;SDS011;54238;52.278;21.056;2024-03-23T16:04:05;14.30;;;8.30;;
67352;SDS011;54238;52.278;21.056;2024-03-23T16:06:56;10.00;;;7.60;;
67352;SDS011;54238;52.278;21.056;2024-03-23T16:09:46;12.60;;;8.00;;
67352;SDS011;54238;52.278;21.056;2024-03-23T16:12:35;13.50;;;7.70;;
67352;SDS011;54238;52.278;21.056;2024-03-23T16:15:22;9.30;;;6.50;;
67352;SDS011;54238;52.278;21.056;2024-03-23T16:18:08;11.30;;;7.30;;
67352;SDS011;54238;52.278;21.056;2024-03-23T16:20:56;11.70;;;7.00;;
67352;SDS011;54238;52.278;21.056;2024-03-23T16:23:49;13.60;;;8.40;;
67352;SDS011;54238;52.278;21.056;2024-03-23T16:26:38;18.10;;;8.40;;
67352;SDS011;54238;52.278;21.056;2024-03-23T16:29:27;13.50;;;9.30;;
67352;SDS011;54238;52.278;21.056;2024-03-23T16:32:18;13.70;;;9.40;;
67352;SDS011;54238;52.278;21.056;2024-03-23T16:35:09;15.50;;;9.70;;
67352;SDS011;54238;52.278;21.056;2024-03-23T16:37:58;13.10;;;10.10;;
67352;SDS011;54238;52.278;21.056;2024-03-23T16:40:57;14.20;;;9.20;;
67352;SDS011;54238;52.278;21.056;2024-03-23T16:43:48;14.00;;;9.20;;
67352;SDS011;54238;52.278;21.056;2024-03-23T16:46:37;13.00;;;9.80;;
67352;SDS011;54238;52.278;21.056;2024-03-23T16:49:26;15.80;;;9.90;;
67352;SDS011;54238;52.278;21.056;2024-03-23T16:52:13;17.00;;;9.80;;
67352;SDS011;54238;52.278;21.056;2024-03-23T16:55:02;11.00;;;7.70;;
67352;SDS011;54238;52.278;21.056;2024-03-23T16:57:51;15.60;;;9.50;;
67352;SDS011;54238;52.278;21.056;2024-03-23T17:00:43;13.80;;;9.20;;
67352;SDS011;54238;52.278;21.056;2024-03-23T17:03:35;17.10;;;10.10;;
67352;SDS011;54238;52.278;21.056;2024-03-23T17:06:24;12.90;;;8.30;;
67352;SDS011;54238;52.278;21.056;2024-03-23T17:09:14;10.50;;;7.40;;
67352;SDS011;54238;52.278;21.056;2024-03-23T17:12:03;15.50;;;8.60;;
67352;SDS011;54238;52.278;21.056;2024-03-23T17:14:54;16.30;;;8.10;;
67352;SDS011;54238;52.278;21.056;2024-03-23T17:17:43;10.00;;;7.30;;
67352;SDS011;54238;52.278;21.056;2024-03-23T17:20:30;14.10;;;7.50;;
67352;SDS011;54238;52.278;21.056;2024-03-23T17:23:25;16.70;;;7.90;;
67352;SDS011;54238;52.278;21.056;2024-03-23T17:26:16;10.30;;;6.70;;